sensor_id;sensor_type;location;lat;lon;timestamp;P1;durP1;ratioP1;P2;durP2;ratioP2
41946;SDS011;27638;42.184;24.848;2023-07-02T00:02:06;9.63;;;7.75;;
41946;SDS011;27638;42.184;24.848;2023-07-02T00:04:31;8.80;;;7.57;;
41946;SDS011;27638;42.184;24.848;2023-07-02T00:06:57;9.00;;;7.32;;
41946;SDS011;27638;42.184;24.848;2023-07-02T00:09:22;11.38;;;7.93;;
41946;SDS011;27638;42.184;24.848;2023-07-02T00:11:48;11.60;;;8.15;;
41946;SDS011;27638;42.184;24.848;2023-07-02T00:14:13;9.40;;;7.55;;
41946;SDS011;27638;42.184;24.848;2023-07-02T00:16:41;9.75;;;7.78;;
41946;SDS011;27638;42.184;24.848;2023-07-02T00:19:09;10.52;;;7.50;;
41946;SDS011;27638;42.184;24.848;2023-07-02T00:21:35;11.30;;;8.45;;
41946;SDS011;27638;42.184;24.848;2023-07-02T00:24:02;10.13;;;7.95;;
41946;SDS011;27638;42.184;24.848;2023-07-02T00:26:28;12.85;;;8.25;;
41946;SDS011;27638;42.184;24.848;2023-07-02T00:28:54;10.27;;;7.57;;
41946;SDS011;27638;42.184;24.848;2023-07-02T00:31:20;14.90;;;8.70;;
41946;SDS011;27638;42.184;24.848;2023-07-02T00:33:46;11.60;;;7.93;;
41946;SDS011;27638;42.184;24.848;2023-07-02T00:36:12;13.68;;;8.15;;
41946;SDS011;27638;42.184;24.848;2023-07-02T00:38:43;12.60;;;7.85;;
41946;SDS011;27638;42.184;24.848;2023-07-02T00:41:10;10.80;;;9.45;;
41946;SDS011;27638;42.184;24.848;2023-07-02T00:43:36;10.43;;;8.15;;
41946;SDS011;27638;42.184;24.848;2023-07-02T00:46:09;11.73;;;8.55;;
41946;SDS011;27638;42.184;24.848;2023-07-02T00:48:38;11.98;;;8.98;;
41946;SDS011;27638;42.184;24.848;2023-07-02T00:51:05;11.38;;;8.90;;
41946;SDS011;27638;42.184;24.848;2023-07-02T00:53:30;11.45;;;8.15;;
41946;SDS011;27638;42.184;24.848;2023-07-02T00:55:57;13.15;;;8.43;;
41946;SDS011;27638;42.184;24.848;2023-07-02T00:58:23;13.85;;;8.52;;
41946;SDS011;27638;42.184;24.848;2023-07-02T01:00:48;12.05;;;8.50;;
41946;SDS011;27638;42.184;24.848;2023-07-02T01:03:14;12.05;;;8.02;;
41946;SDS011;27638;42.184;24.848;2023-07-02T01:05:39;11.85;;;7.82;;
41946;SDS011;27638;42.184;24.848;2023-07-02T01:08:06;11.88;;;7.88;;
41946;SDS011;27638;42.184;24.848;2023-07-02T01:10:32;12.32;;;8.48;;
41946;SDS011;27638;42.184;24.848;2023-07-02T01:13:00;12.88;;;8.20;;
41946;SDS011;27638;42.184;24.848;2023-07-02T01:15:29;14.70;;;10.15;;
41946;SDS011;27638;42.184;24.848;2023-07-02T01:17:56;12.70;;;8.48;;
41946;SDS011;27638;42.184;24.848;2023-07-02T01:20:22;12.48;;;8.80;;
41946;SDS011;27638;42.184;24.848;2023-07-02T01:22:51;11.35;;;7.95;;
41946;SDS011;27638;42.184;24.848;2023-07-02T01:25:17;14.55;;;8.93;;
41946;SDS011;27638;42.184;24.848;2023-07-02T01:27:43;13.23;;;8.93;;
41946;SDS011;27638;42.184;24.848;2023-07-02T01:30:09;15.18;;;8.85;;
41946;SDS011;27638;42.184;24.848;2023-07-02T01:32:36;11.65;;;8.75;;
41946;SDS011;27638;42.184;24.848;2023-07-02T01:35:02;14.57;;;9.73;;
41946;SDS011;27638;42.184;24.848;2023-07-02T01:37:27;15.95;;;9.60;;
41946;SDS011;27638;42.184;24.848;2023-07-02T01:39:53;16.80;;;9.10;;
41946;SDS011;27638;42.184;24.848;2023-07-02T01:42:19;14.07;;;9.45;;
41946;SDS011;27638;42.184;24.848;2023-07-02T01:44:45;13.63;;;9.23;;
41946;SDS011;27638;42.184;24.848;2023-07-02T01:47:13;20.10;;;11.60;;
41946;SDS011;27638;42.184;24.848;2023-07-02T01:49:38;17.30;;;10.82;;
41946;SDS011;27638;42.184;24.848;2023-07-02T01:52:04;18.38;;;10.60;;
41946;SDS011;27638;42.184;24.848;2023-07-02T01:54:31;15.90;;;10.43;;
41946;SDS011;27638;42.184;24.848;2023-07-02T01:56:57;16.50;;;10.25;;
41946;SDS011;27638;42.184;24.848;2023-07-02T01:59:23;17.23;;;11.38;;
41946;SDS011;27638;42.184;24.848;2023-07-02T02:01:49;20.88;;;10.85;;
41946;SDS011;27638;42.184;24.848;2023-07-02T02:04:15;20.45;;;11.02;;
41946;SDS011;27638;42.184;24.848;2023-07-02T02:06:40;16.90;;;10.35;;
41946;SDS011;27638;42.184;24.848;2023-07-02T02:09:06;15.68;;;10.70;;
41946;SDS011;27638;42.184;24.848;2023-07-02T02:11:34;22.45;;;11.82;;
41946;SDS011;27638;42.184;24.848;2023-07-02T02:14:03;16.20;;;9.85;;
41946;SDS011;27638;42.184;24.848;2023-07-02T02:16:28;21.83;;;10.25;;
41946;SDS011;27638;42.184;24.848;2023-07-02T02:18:54;21.23;;;10.07;;
41946;SDS011;27638;42.184;24.848;2023-07-02T02:21:20;13.18;;;9.15;;
41946;SDS011;27638;42.184;24.848;2023-07-02T02:23:46;17.38;;;8.73;;
41946;SDS011;27638;42.184;24.848;2023-07-02T02:26:12;21.95;;;9.68;;
41946;SDS011;27638;42.184;24.848;2023-07-02T02:28:37;14.45;;;8.98;;
41946;SDS011;27638;42.184;24.848;2023-07-02T02:31:03;17.55;;;9.35;;
41946;SDS011;27638;42.184;24.848;2023-07-02T02:33:29;14.35;;;8.40;;
41946;SDS011;27638;42.184;24.848;2023-07-02T02:35:54;14.05;;;8.63;;
41946;SDS011;27638;42.184;24.848;2023-07-02T02:38:20;16.67;;;8.90;;
41946;SDS011;27638;42.184;24.848;2023-07-02T02:40:46;15.73;;;8.65;;
41946;SDS011;27638;42.184;24.848;2023-07-02T02:43:11;14.77;;;9.07;;
41946;SDS011;27638;42.184;24.848;2023-07-02T02:45:37;16.27;;;9.57;;
41946;SDS011;27638;42.184;24.848;2023-07-02T02:48:02;17.35;;;10.25;;
41946;SDS011;27638;42.184;24.848;2023-07-02T02:50:28;27.85;;;10.13;;
41946;SDS011;27638;42.184;24.848;2023-07-02T02:52:53;15.27;;;10.52;;
41946;SDS011;27638;42.184;24.848;2023-07-02T02:55:18;19.98;;;10.55;;
41946;SDS011;27638;42.184;24.848;2023-07-02T02:57:44;19.30;;;10.25;;
41946;SDS011;27638;42.184;24.848;2023-07-02T03:00:10;18.73;;;10.82;;
41946;SDS011;27638;42.184;24.848;2023-07-02T03:02:37;20.48;;;10.70;;
41946;SDS011;27638;42.184;24.848;2023-07-02T03:05:03;17.42;;;10.55;;
41946;SDS011;27638;42.184;24.848;2023-07-02T03:07:29;19.85;;;11.93;;
41946;SDS011;27638;42.184;24.848;2023-07-02T03:09:55;18.48;;;11.15;;
41946;SDS011;27638;42.184;24.848;2023-07-02T03:12:21;17.45;;;11.82;;
41946;SDS011;27638;42.184;24.848;2023-07-02T03:14:46;20.35;;;11.52;;
41946;SDS011;27638;42.184;24.848;2023-07-02T03:17:16;16.85;;;11.45;;
41946;SDS011;27638;42.184;24.848;2023-07-02T03:19:42;20.75;;;13.07;;
41946;SDS011;27638;42.184;24.848;2023-07-02T03:22:07;20.67;;;13.90;;
41946;SDS011;27638;42.184;24.848;2023-07-02T03:24:32;22.95;;;15.27;;
41946;SDS011;27638;42.184;24.848;2023-07-02T03:26:58;29.17;;;15.80;;
41946;SDS011;27638;42.184;24.848;2023-07-02T03:29:23;22.70;;;14.38;;
41946;SDS011;27638;42.184;24.848;2023-07-02T03:31:49;23.80;;;13.38;;
41946;SDS011;27638;42.184;24.848;2023-07-02T03:34:14;20.70;;;13.15;;
41946;SDS011;27638;42.184;24.848;2023-07-02T03:36:39;18.15;;;11.25;;
41946;SDS011;27638;42.184;24.848;2023-07-02T03:39:05;19.15;;;11.10;;
41946;SDS011;27638;42.184;24.848;2023-07-02T03:41:31;15.90;;;11.18;;
41946;SDS011;27638;42.184;24.848;2023-07-02T03:43:56;17.95;;;10.52;;
41946;SDS011;27638;42.184;24.848;2023-07-02T03:46:22;16.30;;;10.40;;
41946;SDS011;27638;42.184;24.848;2023-07-02T03:48:47;16.50;;;9.13;;
41946;SDS011;27638;42.184;24.848;2023-07-02T03:51:13;15.00;;;9.25;;
41946;SDS011;27638;42.184;24.848;2023-07-02T03:53:39;16.00;;;9.50;;
41946;SDS011;27638;42.184;24.848;2023-07-02T03:56:05;14.48;;;8.02;;
41946;SDS011;27638;42.184;24.848;2023-07-02T03:58:31;13.55;;;7.82;;
41946;SDS011;27638;42.184;24.848;2023-07-02T04:00:56;14.02;;;8.13;;
41946;SDS011;27638;42.184;24.848;2023-07-02T04:03:22;10.13;;;6.93;;
41946;SDS011;27638;42.184;24.848;2023-07-02T04:05:47;11.40;;;6.90;;
41946;SDS011;27638;42.184;24.848;2023-07-02T04:08:14;12.07;;;7.03;;
41946;SDS011;27638;42.184;24.848;2023-07-02T04:10:40;12.98;;;7.57;;
41946;SDS011;27638;42.184;24.848;2023-07-02T04:13:06;11.45;;;6.78;;
41946;SDS011;27638;42.184;24.848;2023-07-02T04:15:31;11.23;;;6.78;;
41946;SDS011;27638;42.184;24.848;2023-07-02T04:17:57;8.45;;;6.85;;
41946;SDS011;27638;42.184;24.848;2023-07-02T04:20:22;19.83;;;13.60;;
41946;SDS011;27638;42.184;24.848;2023-07-02T04:22:48;16.77;;;12.93;;
41946;SDS011;27638;42.184;24.848;2023-07-02T04:25:14;12.48;;;7.30;;
41946;SDS011;27638;42.184;24.848;2023-07-02T04:27:43;12.77;;;6.88;;
41946;SDS011;27638;42.184;24.848;2023-07-02T04:30:09;10.77;;;7.35;;
41946;SDS011;27638;42.184;24.848;2023-07-02T04:32:36;14.57;;;7.50;;
41946;SDS011;27638;42.184;24.848;2023-07-02T04:35:04;11.57;;;6.70;;
41946;SDS011;27638;42.184;24.848;2023-07-02T04:37:30;9.77;;;7.00;;
41946;SDS011;27638;42.184;24.848;2023-07-02T04:39:56;9.98;;;7.03;;
41946;SDS011;27638;42.184;24.848;2023-07-02T04:42:21;12.85;;;6.75;;
41946;SDS011;27638;42.184;24.848;2023-07-02T04:44:47;10.27;;;7.20;;
41946;SDS011;27638;42.184;24.848;2023-07-02T04:47:12;14.75;;;6.72;;
41946;SDS011;27638;42.184;24.848;2023-07-02T04:49:38;12.18;;;7.32;;
41946;SDS011;27638;42.184;24.848;2023-07-02T04:52:03;10.68;;;7.72;;
41946;SDS011;27638;42.184;24.848;2023-07-02T04:54:29;12.50;;;7.70;;
41946;SDS011;27638;42.184;24.848;2023-07-02T04:56:55;12.65;;;7.85;;
41946;SDS011;27638;42.184;24.848;2023-07-02T04:59:23;12.27;;;7.57;;
41946;SDS011;27638;42.184;24.848;2023-07-02T05:01:48;10.85;;;7.97;;
41946;SDS011;27638;42.184;24.848;2023-07-02T05:04:14;11.43;;;7.32;;
41946;SDS011;27638;42.184;24.848;2023-07-02T05:06:39;11.68;;;7.45;;
41946;SDS011;27638;42.184;24.848;2023-07-02T05:09:05;12.25;;;7.50;;
41946;SDS011;27638;42.184;24.848;2023-07-02T05:11:30;13.20;;;7.68;;
41946;SDS011;27638;42.184;24.848;2023-07-02T05:13:56;13.77;;;11.85;;
41946;SDS011;27638;42.184;24.848;2023-07-02T05:16:21;13.30;;;11.70;;
41946;SDS011;27638;42.184;24.848;2023-07-02T05:18:46;12.85;;;7.68;;
41946;SDS011;27638;42.184;24.848;2023-07-02T05:21:12;9.73;;;7.40;;
41946;SDS011;27638;42.184;24.848;2023-07-02T05:23:37;12.18;;;8.75;;
41946;SDS011;27638;42.184;24.848;2023-07-02T05:26:03;11.52;;;7.90;;
41946;SDS011;27638;42.184;24.848;2023-07-02T05:28:28;12.35;;;7.75;;
41946;SDS011;27638;42.184;24.848;2023-07-02T05:30:54;12.35;;;9.80;;
41946;SDS011;27638;42.184;24.848;2023-07-02T05:33:19;16.95;;;9.68;;
41946;SDS011;27638;42.184;24.848;2023-07-02T05:35:47;13.25;;;10.07;;
41946;SDS011;27638;42.184;24.848;2023-07-02T05:38:12;14.43;;;10.45;;
41946;SDS011;27638;42.184;24.848;2023-07-02T05:40:38;13.23;;;9.20;;
41946;SDS011;27638;42.184;24.848;2023-07-02T05:43:03;14.93;;;9.40;;
41946;SDS011;27638;42.184;24.848;2023-07-02T05:45:29;13.65;;;9.27;;
41946;SDS011;27638;42.184;24.848;2023-07-02T05:47:54;12.85;;;9.45;;
41946;SDS011;27638;42.184;24.848;2023-07-02T05:50:20;16.08;;;8.90;;
41946;SDS011;27638;42.184;24.848;2023-07-02T05:52:45;12.10;;;8.63;;
41946;SDS011;27638;42.184;24.848;2023-07-02T05:55:11;13.40;;;9.07;;
41946;SDS011;27638;42.184;24.848;2023-07-02T05:57:37;12.27;;;8.57;;
41946;SDS011;27638;42.184;24.848;2023-07-02T06:00:05;12.07;;;8.52;;
41946;SDS011;27638;42.184;24.848;2023-07-02T06:02:31;11.20;;;8.07;;
41946;SDS011;27638;42.184;24.848;2023-07-02T06:04:57;12.20;;;8.88;;
41946;SDS011;27638;42.184;24.848;2023-07-02T06:07:23;12.05;;;6.85;;
41946;SDS011;27638;42.184;24.848;2023-07-02T06:09:49;12.77;;;7.60;;
41946;SDS011;27638;42.184;24.848;2023-07-02T06:12:15;15.02;;;8.68;;
41946;SDS011;27638;42.184;24.848;2023-07-02T06:14:40;12.63;;;8.52;;
41946;SDS011;27638;42.184;24.848;2023-07-02T06:17:06;11.77;;;8.93;;
41946;SDS011;27638;42.184;24.848;2023-07-02T06:19:32;12.80;;;7.75;;
41946;SDS011;27638;42.184;24.848;2023-07-02T06:21:58;14.05;;;10.02;;
41946;SDS011;27638;42.184;24.848;2023-07-02T06:24:24;20.98;;;14.30;;
41946;SDS011;27638;42.184;24.848;2023-07-02T06:26:49;13.63;;;9.23;;
41946;SDS011;27638;42.184;24.848;2023-07-02T06:29:15;12.27;;;7.47;;
41946;SDS011;27638;42.184;24.848;2023-07-02T06:31:40;11.27;;;7.43;;
41946;SDS011;27638;42.184;24.848;2023-07-02T06:34:06;10.43;;;7.25;;
41946;SDS011;27638;42.184;24.848;2023-07-02T06:36:33;10.27;;;8.30;;
41946;SDS011;27638;42.184;24.848;2023-07-02T06:38:59;11.27;;;7.40;;
41946;SDS011;27638;42.184;24.848;2023-07-02T06:41:24;10.85;;;7.80;;
41946;SDS011;27638;42.184;24.848;2023-07-02T06:43:50;11.23;;;8.20;;
41946;SDS011;27638;42.184;24.848;2023-07-02T06:46:15;11.18;;;7.20;;
41946;SDS011;27638;42.184;24.848;2023-07-02T06:48:41;9.55;;;7.43;;
41946;SDS011;27638;42.184;24.848;2023-07-02T06:51:06;14.85;;;13.15;;
41946;SDS011;27638;42.184;24.848;2023-07-02T06:53:32;11.75;;;7.70;;
41946;SDS011;27638;42.184;24.848;2023-07-02T06:55:58;10.45;;;7.00;;
41946;SDS011;27638;42.184;24.848;2023-07-02T06:58:23;13.70;;;8.15;;
41946;SDS011;27638;42.184;24.848;2023-07-02T07:00:49;9.88;;;7.18;;
41946;SDS011;27638;42.184;24.848;2023-07-02T07:03:15;10.48;;;7.43;;
41946;SDS011;27638;42.184;24.848;2023-07-02T07:05:41;11.52;;;8.88;;
41946;SDS011;27638;42.184;24.848;2023-07-02T07:08:06;10.93;;;7.78;;
41946;SDS011;27638;42.184;24.848;2023-07-02T07:10:32;11.52;;;8.43;;
41946;SDS011;27638;42.184;24.848;2023-07-02T07:12:59;12.05;;;7.85;;
41946;SDS011;27638;42.184;24.848;2023-07-02T07:15:32;9.88;;;7.47;;
41946;SDS011;27638;42.184;24.848;2023-07-02T07:17:59;11.88;;;9.10;;
41946;SDS011;27638;42.184;24.848;2023-07-02T07:20:25;12.85;;;8.95;;
41946;SDS011;27638;42.184;24.848;2023-07-02T07:22:50;12.98;;;9.45;;
41946;SDS011;27638;42.184;24.848;2023-07-02T07:25:15;10.70;;;8.68;;
41946;SDS011;27638;42.184;24.848;2023-07-02T07:27:41;11.95;;;8.60;;
41946;SDS011;27638;42.184;24.848;2023-07-02T07:30:06;11.30;;;9.50;;
41946;SDS011;27638;42.184;24.848;2023-07-02T07:32:32;16.30;;;14.70;;
41946;SDS011;27638;42.184;24.848;2023-07-02T07:34:57;12.15;;;9.80;;
41946;SDS011;27638;42.184;24.848;2023-07-02T07:37:23;11.43;;;8.95;;
41946;SDS011;27638;42.184;24.848;2023-07-02T07:39:50;12.68;;;9.60;;
41946;SDS011;27638;42.184;24.848;2023-07-02T07:42:16;13.07;;;9.43;;
41946;SDS011;27638;42.184;24.848;2023-07-02T07:44:45;11.88;;;8.85;;
41946;SDS011;27638;42.184;24.848;2023-07-02T07:47:11;10.18;;;8.73;;
41946;SDS011;27638;42.184;24.848;2023-07-02T07:49:36;10.07;;;8.38;;
41946;SDS011;27638;42.184;24.848;2023-07-02T07:52:02;11.70;;;7.82;;
41946;SDS011;27638;42.184;24.848;2023-07-02T07:54:28;9.93;;;7.60;;
41946;SDS011;27638;42.184;24.848;2023-07-02T07:56:54;10.65;;;8.15;;
41946;SDS011;27638;42.184;24.848;2023-07-02T07:59:19;12.65;;;8.13;;
41946;SDS011;27638;42.184;24.848;2023-07-02T08:01:45;9.35;;;7.75;;
41946;SDS011;27638;42.184;24.848;2023-07-02T08:04:11;8.95;;;7.28;;
41946;SDS011;27638;42.184;24.848;2023-07-02T08:06:37;10.10;;;7.18;;
41946;SDS011;27638;42.184;24.848;2023-07-02T08:09:02;8.82;;;7.22;;
41946;SDS011;27638;42.184;24.848;2023-07-02T08:11:28;10.85;;;8.13;;
41946;SDS011;27638;42.184;24.848;2023-07-02T08:13:54;10.10;;;7.70;;
41946;SDS011;27638;42.184;24.848;2023-07-02T08:16:19;10.90;;;7.68;;
41946;SDS011;27638;42.184;24.848;2023-07-02T08:18:45;10.48;;;7.03;;
41946;SDS011;27638;42.184;24.848;2023-07-02T08:21:10;8.95;;;7.35;;
41946;SDS011;27638;42.184;24.848;2023-07-02T08:23:36;9.52;;;7.15;;
41946;SDS011;27638;42.184;24.848;2023-07-02T08:26:02;9.35;;;6.53;;
41946;SDS011;27638;42.184;24.848;2023-07-02T08:28:28;8.70;;;6.88;;
41946;SDS011;27638;42.184;24.848;2023-07-02T08:30:53;8.23;;;6.93;;
41946;SDS011;27638;42.184;24.848;2023-07-02T08:33:19;9.90;;;7.10;;
41946;SDS011;27638;42.184;24.848;2023-07-02T08:35:45;13.30;;;6.65;;
41946;SDS011;27638;42.184;24.848;2023-07-02T08:38:10;8.30;;;6.45;;
41946;SDS011;27638;42.184;24.848;2023-07-02T08:40:36;10.73;;;6.65;;
41946;SDS011;27638;42.184;24.848;2023-07-02T08:43:01;8.43;;;6.70;;
41946;SDS011;27638;42.184;24.848;2023-07-02T08:45:27;9.23;;;6.32;;
41946;SDS011;27638;42.184;24.848;2023-07-02T08:47:53;9.07;;;7.07;;
41946;SDS011;27638;42.184;24.848;2023-07-02T08:50:23;8.27;;;6.68;;
41946;SDS011;27638;42.184;24.848;2023-07-02T08:52:48;8.38;;;5.70;;
41946;SDS011;27638;42.184;24.848;2023-07-02T08:55:14;8.85;;;6.18;;
41946;SDS011;27638;42.184;24.848;2023-07-02T08:57:40;9.68;;;7.35;;
41946;SDS011;27638;42.184;24.848;2023-07-02T09:00:14;8.90;;;6.63;;
41946;SDS011;27638;42.184;24.848;2023-07-02T09:02:40;10.38;;;7.93;;
41946;SDS011;27638;42.184;24.848;2023-07-02T09:05:05;7.15;;;5.53;;
41946;SDS011;27638;42.184;24.848;2023-07-02T09:07:31;7.05;;;6.35;;
41946;SDS011;27638;42.184;24.848;2023-07-02T09:09:57;9.82;;;6.25;;
41946;SDS011;27638;42.184;24.848;2023-07-02T09:14:59;8.40;;;6.20;;
41946;SDS011;27638;42.184;24.848;2023-07-02T09:17:28;8.27;;;6.75;;
41946;SDS011;27638;42.184;24.848;2023-07-02T09:19:55;7.88;;;6.50;;
41946;SDS011;27638;42.184;24.848;2023-07-02T09:22:23;8.70;;;6.72;;
41946;SDS011;27638;42.184;24.848;2023-07-02T09:24:55;7.70;;;5.95;;
41946;SDS011;27638;42.184;24.848;2023-07-02T09:27:32;8.15;;;6.22;;
41946;SDS011;27638;42.184;24.848;2023-07-02T09:30:04;7.65;;;5.97;;
41946;SDS011;27638;42.184;24.848;2023-07-02T09:32:31;7.72;;;6.10;;
41946;SDS011;27638;42.184;24.848;2023-07-02T09:34:57;7.68;;;6.00;;
41946;SDS011;27638;42.184;24.848;2023-07-02T09:37:23;6.65;;;5.95;;
41946;SDS011;27638;42.184;24.848;2023-07-02T09:39:51;8.35;;;6.43;;
41946;SDS011;27638;42.184;24.848;2023-07-02T09:42:20;7.53;;;6.10;;
41946;SDS011;27638;42.184;24.848;2023-07-02T09:44:47;8.10;;;6.22;;
41946;SDS011;27638;42.184;24.848;2023-07-02T09:47:14;7.38;;;5.65;;
41946;SDS011;27638;42.184;24.848;2023-07-02T09:49:46;8.15;;;6.07;;
41946;SDS011;27638;42.184;24.848;2023-07-02T09:52:22;7.25;;;6.35;;
41946;SDS011;27638;42.184;24.848;2023-07-02T09:54:48;8.50;;;5.82;;
41946;SDS011;27638;42.184;24.848;2023-07-02T09:57:13;6.47;;;5.30;;
41946;SDS011;27638;42.184;24.848;2023-07-02T09:59:39;7.43;;;6.30;;
41946;SDS011;27638;42.184;24.848;2023-07-02T10:02:05;20.70;;;7.65;;
41946;SDS011;27638;42.184;24.848;2023-07-02T10:07:25;7.13;;;6.00;;
41946;SDS011;27638;42.184;24.848;2023-07-02T10:09:52;7.40;;;6.03;;
41946;SDS011;27638;42.184;24.848;2023-07-02T10:12:18;7.63;;;5.20;;
41946;SDS011;27638;42.184;24.848;2023-07-02T10:14:44;8.00;;;6.40;;
41946;SDS011;27638;42.184;24.848;2023-07-02T10:17:11;7.65;;;6.75;;
41946;SDS011;27638;42.184;24.848;2023-07-02T10:19:51;7.00;;;6.03;;
41946;SDS011;27638;42.184;24.848;2023-07-02T10:22:17;7.70;;;5.80;;
41946;SDS011;27638;42.184;24.848;2023-07-02T10:24:53;11.00;;;7.05;;
41946;SDS011;27638;42.184;24.848;2023-07-02T10:27:40;8.15;;;6.55;;
41946;SDS011;27638;42.184;24.848;2023-07-02T10:30:07;11.00;;;6.80;;
41946;SDS011;27638;42.184;24.848;2023-07-02T10:32:34;9.77;;;7.47;;
41946;SDS011;27638;42.184;24.848;2023-07-02T10:35:01;8.45;;;6.43;;
41946;SDS011;27638;42.184;24.848;2023-07-02T10:37:35;8.55;;;6.80;;
41946;SDS011;27638;42.184;24.848;2023-07-02T10:40:08;10.35;;;7.28;;
41946;SDS011;27638;42.184;24.848;2023-07-02T10:42:55;9.13;;;7.40;;
41946;SDS011;27638;42.184;24.848;2023-07-02T10:45:20;8.20;;;7.38;;
41946;SDS011;27638;42.184;24.848;2023-07-02T10:47:46;9.35;;;7.55;;
41946;SDS011;27638;42.184;24.848;2023-07-02T10:52:44;7.95;;;6.82;;
41946;SDS011;27638;42.184;24.848;2023-07-02T10:55:09;9.93;;;7.90;;
41946;SDS011;27638;42.184;24.848;2023-07-02T10:57:35;11.70;;;6.88;;
41946;SDS011;27638;42.184;24.848;2023-07-02T11:00:07;8.20;;;6.78;;
41946;SDS011;27638;42.184;24.848;2023-07-02T11:02:39;10.13;;;7.60;;
41946;SDS011;27638;42.184;24.848;2023-07-02T11:05:05;8.38;;;6.95;;
41946;SDS011;27638;42.184;24.848;2023-07-02T11:07:34;9.27;;;7.53;;
41946;SDS011;27638;42.184;24.848;2023-07-02T11:10:00;13.05;;;8.25;;
41946;SDS011;27638;42.184;24.848;2023-07-02T11:12:29;11.32;;;8.77;;
41946;SDS011;27638;42.184;24.848;2023-07-02T11:15:06;11.52;;;7.97;;
41946;SDS011;27638;42.184;24.848;2023-07-02T11:17:39;9.68;;;8.30;;
41946;SDS011;27638;42.184;24.848;2023-07-02T11:20:08;11.38;;;8.68;;
41946;SDS011;27638;42.184;24.848;2023-07-02T11:22:36;11.05;;;8.75;;
41946;SDS011;27638;42.184;24.848;2023-07-02T11:25:12;12.15;;;9.20;;
41946;SDS011;27638;42.184;24.848;2023-07-02T11:27:41;14.43;;;9.63;;
41946;SDS011;27638;42.184;24.848;2023-07-02T11:30:07;13.98;;;8.80;;
41946;SDS011;27638;42.184;24.848;2023-07-02T11:32:54;11.23;;;9.27;;
41946;SDS011;27638;42.184;24.848;2023-07-02T11:35:19;10.82;;;7.22;;
41946;SDS011;27638;42.184;24.848;2023-07-02T11:37:46;11.07;;;8.93;;
41946;SDS011;27638;42.184;24.848;2023-07-02T11:40:13;12.32;;;8.52;;
41946;SDS011;27638;42.184;24.848;2023-07-02T11:42:39;10.93;;;8.05;;
41946;SDS011;27638;42.184;24.848;2023-07-02T11:45:05;11.38;;;7.90;;
41946;SDS011;27638;42.184;24.848;2023-07-02T11:47:30;11.82;;;9.23;;
41946;SDS011;27638;42.184;24.848;2023-07-02T11:49:56;12.43;;;8.35;;
41946;SDS011;27638;42.184;24.848;2023-07-02T11:52:21;12.80;;;8.27;;
41946;SDS011;27638;42.184;24.848;2023-07-02T11:54:47;11.90;;;8.10;;
41946;SDS011;27638;42.184;24.848;2023-07-02T11:57:13;11.23;;;7.88;;
41946;SDS011;27638;42.184;24.848;2023-07-02T11:59:38;9.38;;;6.93;;
41946;SDS011;27638;42.184;24.848;2023-07-02T12:02:04;10.05;;;7.22;;
41946;SDS011;27638;42.184;24.848;2023-07-02T12:04:30;12.43;;;7.15;;
41946;SDS011;27638;42.184;24.848;2023-07-02T12:06:55;10.38;;;7.40;;
41946;SDS011;27638;42.184;24.848;2023-07-02T12:09:21;11.73;;;7.85;;
41946;SDS011;27638;42.184;24.848;2023-07-02T12:11:46;10.52;;;8.00;;
41946;SDS011;27638;42.184;24.848;2023-07-02T12:14:12;11.40;;;8.20;;
41946;SDS011;27638;42.184;24.848;2023-07-02T12:16:38;10.38;;;8.02;;
41946;SDS011;27638;42.184;24.848;2023-07-02T12:19:03;12.60;;;8.60;;
41946;SDS011;27638;42.184;24.848;2023-07-02T12:21:28;11.88;;;8.65;;
41946;SDS011;27638;42.184;24.848;2023-07-02T12:23:54;10.57;;;7.38;;
41946;SDS011;27638;42.184;24.848;2023-07-02T12:26:19;10.27;;;7.82;;
41946;SDS011;27638;42.184;24.848;2023-07-02T12:28:45;9.13;;;6.88;;
41946;SDS011;27638;42.184;24.848;2023-07-02T12:31:10;10.88;;;7.43;;
41946;SDS011;27638;42.184;24.848;2023-07-02T12:33:37;9.80;;;7.25;;
41946;SDS011;27638;42.184;24.848;2023-07-02T12:36:03;9.75;;;6.65;;
41946;SDS011;27638;42.184;24.848;2023-07-02T12:38:29;9.02;;;6.60;;
41946;SDS011;27638;42.184;24.848;2023-07-02T12:40:54;8.27;;;5.80;;
41946;SDS011;27638;42.184;24.848;2023-07-02T12:43:19;8.82;;;6.43;;
41946;SDS011;27638;42.184;24.848;2023-07-02T12:45:45;8.32;;;6.05;;
41946;SDS011;27638;42.184;24.848;2023-07-02T12:48:10;10.15;;;6.50;;
41946;SDS011;27638;42.184;24.848;2023-07-02T12:50:37;9.93;;;6.63;;
41946;SDS011;27638;42.184;24.848;2023-07-02T12:53:03;9.43;;;6.85;;
41946;SDS011;27638;42.184;24.848;2023-07-02T12:55:29;8.52;;;6.30;;
41946;SDS011;27638;42.184;24.848;2023-07-02T12:57:54;9.15;;;6.75;;
41946;SDS011;27638;42.184;24.848;2023-07-02T13:00:20;10.15;;;6.55;;
41946;SDS011;27638;42.184;24.848;2023-07-02T13:02:46;10.27;;;6.47;;
41946;SDS011;27638;42.184;24.848;2023-07-02T13:05:12;9.27;;;7.00;;
41946;SDS011;27638;42.184;24.848;2023-07-02T13:07:38;10.45;;;7.32;;
41946;SDS011;27638;42.184;24.848;2023-07-02T13:10:03;10.27;;;7.78;;
41946;SDS011;27638;42.184;24.848;2023-07-02T13:12:29;10.70;;;8.88;;
41946;SDS011;27638;42.184;24.848;2023-07-02T13:14:55;11.10;;;9.18;;
41946;SDS011;27638;42.184;24.848;2023-07-02T13:17:20;13.07;;;10.13;;
41946;SDS011;27638;42.184;24.848;2023-07-02T13:19:46;11.57;;;8.68;;
41946;SDS011;27638;42.184;24.848;2023-07-02T13:22:11;10.88;;;9.52;;
41946;SDS011;27638;42.184;24.848;2023-07-02T13:24:37;13.02;;;9.85;;
41946;SDS011;27638;42.184;24.848;2023-07-02T13:27:06;10.00;;;7.90;;
41946;SDS011;27638;42.184;24.848;2023-07-02T13:29:36;11.15;;;7.93;;
41946;SDS011;27638;42.184;24.848;2023-07-02T13:32:01;12.45;;;9.30;;
41946;SDS011;27638;42.184;24.848;2023-07-02T13:34:26;12.48;;;8.45;;
41946;SDS011;27638;42.184;24.848;2023-07-02T13:36:52;12.60;;;8.55;;
41946;SDS011;27638;42.184;24.848;2023-07-02T13:39:17;11.18;;;8.75;;
41946;SDS011;27638;42.184;24.848;2023-07-02T13:41:43;10.98;;;8.57;;
41946;SDS011;27638;42.184;24.848;2023-07-02T13:44:08;11.75;;;9.10;;
41946;SDS011;27638;42.184;24.848;2023-07-02T13:46:34;12.35;;;9.20;;
41946;SDS011;27638;42.184;24.848;2023-07-02T13:49:00;12.55;;;10.00;;
41946;SDS011;27638;42.184;24.848;2023-07-02T13:51:25;11.77;;;10.35;;
41946;SDS011;27638;42.184;24.848;2023-07-02T13:53:50;13.32;;;10.30;;
41946;SDS011;27638;42.184;24.848;2023-07-02T13:56:16;13.50;;;10.18;;
41946;SDS011;27638;42.184;24.848;2023-07-02T14:01:22;12.15;;;8.90;;
41946;SDS011;27638;42.184;24.848;2023-07-02T14:03:48;12.15;;;8.65;;
41946;SDS011;27638;42.184;24.848;2023-07-02T14:06:13;11.40;;;8.73;;
41946;SDS011;27638;42.184;24.848;2023-07-02T14:08:40;10.05;;;7.25;;
41946;SDS011;27638;42.184;24.848;2023-07-02T14:11:06;9.68;;;6.50;;
41946;SDS011;27638;42.184;24.848;2023-07-02T14:13:31;9.65;;;6.57;;
41946;SDS011;27638;42.184;24.848;2023-07-02T14:15:57;7.80;;;6.07;;
41946;SDS011;27638;42.184;24.848;2023-07-02T14:18:23;10.40;;;6.40;;
41946;SDS011;27638;42.184;24.848;2023-07-02T14:20:49;8.93;;;6.80;;
41946;SDS011;27638;42.184;24.848;2023-07-02T14:23:14;10.00;;;6.85;;
41946;SDS011;27638;42.184;24.848;2023-07-02T14:25:40;8.75;;;6.15;;
41946;SDS011;27638;42.184;24.848;2023-07-02T14:28:05;9.75;;;7.18;;
41946;SDS011;27638;42.184;24.848;2023-07-02T14:30:30;8.77;;;6.88;;